Airfield :
LOGIN :

Register | Disclaimer

   EN    FR    IT 

 










Legend :    VFR   Marginal VFR   IFR   Intensive IFR   Very Intensive IFR
Visi :
Ceiling :
>= 8 km
>= 3000ft
5 to 8 km
1000 to 3000 ft
1500m to 5 km
500 to 1000 ft
800 to 1500m
200 to 500 ft
< 800m
< 200 ft
Symbols :   Thunderstorms  Fog  Heavy snow  Heavy precipitations  Wind > 20 kt
SIGMETs :     Misc.  Thunderstorms  Icing  Turbulence  Mountain Waves  Volcanic Ashes






- Airport Elevation : 137 ft
- IATA code : THN


ESGT - Trollhattan-Vanersborg

CURRENT METAR :
  • 210020Z AUTO 23014KT 9999 FEW016/// SCT042/// 05/02 Q0992

EXPIRED METARs :
  • 202350Z AUTO 23016KT 9999 -RA FEW005/// BKN014/// BKN019/// 05/03 Q0991
  • 202320Z AUTO 22018G28KT 9999 RA OVC012/// 06/04 Q0990
  • 202250Z AUTO 20019KT 6000 -RA BKN005/// OVC011/// 06/05 Q0990
  • 202220Z AUTO 20019G30KT 9000 RA SCT005/// BKN009/// BKN012/// 06/05 Q0990

Expired Forecast.



MET'MAP, your aeronautical weather chart ! - Copyright ORBIFLY December 2007 - Disclaimer

ORBIFLY MET'MAP TEAM :

Programming & Development : Alexandra Zaïnal
Concept & original design : Baudouin d'Aumeries
Assistance for programming : Marc-Olivier Méhu
Technical & hardware support : Manuel Goepfert

Contact : metmap@orbifly.com




SOURCES & CREDITS :

   NOAA